createdAt,value
2023-05-22T00:01:33.061Z,10.68
2023-05-22T00:06:34.989Z,10.73
2023-05-22T00:11:36.871Z,11.25
2023-05-22T00:16:38.862Z,11.60
2023-05-22T00:21:40.719Z,12.45
2023-05-22T00:26:42.579Z,12.63
2023-05-22T00:31:44.410Z,12.32
2023-05-22T00:36:46.284Z,12.27
2023-05-22T00:41:48.161Z,12.30
2023-05-22T00:46:50.745Z,12.23
2023-05-22T00:51:52.595Z,14.68
2023-05-22T00:56:54.886Z,12.95
2023-05-22T01:01:57.870Z,12.98
2023-05-22T01:07:03.052Z,13.40
2023-05-22T01:12:16.103Z,14.25
2023-05-22T01:17:38.604Z,14.65
2023-05-22T01:23:09.988Z,15.57
2023-05-22T01:28:17.837Z,17.30
2023-05-22T01:33:21.969Z,17.13
2023-05-22T01:38:25.003Z,18.13
2023-05-22T01:43:27.540Z,20.10
2023-05-22T01:48:29.359Z,19.20
2023-05-22T01:53:56.162Z,20.77
2023-05-22T01:59:15.021Z,21.77
2023-05-22T02:04:22.639Z,22.55
2023-05-22T02:09:28.205Z,23.40
2023-05-22T02:14:30.295Z,23.30
2023-05-22T02:19:37.409Z,23.98
2023-05-22T02:24:46.798Z,24.30
2023-05-22T02:29:48.600Z,24.27
2023-05-22T02:34:50.891Z,25.30
2023-05-22T02:39:53.628Z,26.67
2023-05-22T02:44:55.598Z,26.20
2023-05-22T02:50:00.236Z,27.58
2023-05-22T02:55:02.026Z,26.98
2023-05-22T03:00:07.089Z,26.90
2023-05-22T03:05:09.306Z,26.55
2023-05-22T03:10:11.494Z,26.98
2023-05-22T03:15:13.458Z,26.52
2023-05-22T03:20:16.409Z,26.02
2023-05-22T03:25:20.440Z,27.60
2023-05-22T03:30:22.353Z,28.08
2023-05-22T03:35:25.298Z,28.02
2023-05-22T03:40:27.124Z,27.38
2023-05-22T03:45:29.090Z,29.63
2023-05-22T03:50:31.125Z,29.02
2023-05-22T03:55:33.125Z,30.25
2023-05-22T04:00:34.968Z,30.42
2023-05-22T04:05:37.042Z,29.27
2023-05-22T04:10:39.239Z,29.70
2023-05-22T04:15:43.619Z,26.60
2023-05-22T04:20:45.516Z,29.63
2023-05-22T04:25:48.402Z,29.02
2023-05-22T04:30:50.400Z,29.48
2023-05-22T04:35:52.576Z,26.33
2023-05-22T04:40:55.092Z,27.85
2023-05-22T04:45:56.891Z,26.48
2023-05-22T04:50:58.711Z,27.17
2023-05-22T04:56:00.871Z,26.73
2023-05-22T05:01:03.424Z,25.50
2023-05-22T05:06:05.568Z,25.90
2023-05-22T05:11:07.375Z,28.15
2023-05-22T05:16:09.274Z,25.10
2023-05-22T05:21:11.853Z,25.45
2023-05-22T05:26:13.908Z,25.92
2023-05-22T05:31:15.795Z,25.63
2023-05-22T05:36:17.621Z,27.48
2023-05-22T05:41:19.498Z,25.27
2023-05-22T05:46:21.413Z,26.27
2023-05-22T05:51:23.290Z,25.20
2023-05-22T05:56:25.118Z,25.05
2023-05-22T06:01:27.383Z,25.92
2023-05-22T06:06:30.963Z,25.02
2023-05-22T06:11:33.682Z,27.85
2023-05-22T06:16:35.605Z,28.67
2023-05-22T06:21:37.537Z,28.83
2023-05-22T06:26:39.516Z,27.60
2023-05-22T06:31:41.449Z,26.30
2023-05-22T06:36:43.435Z,26.83
2023-05-22T06:41:45.800Z,26.90
2023-05-22T06:46:47.605Z,27.30
2023-05-22T06:51:49.556Z,27.42
2023-05-22T06:56:51.385Z,30.27
2023-05-22T07:01:53.375Z,29.35
2023-05-22T07:06:55.460Z,31.08
2023-05-22T07:11:57.272Z,31.20
2023-05-22T07:16:59.407Z,30.00
2023-05-22T07:22:01.386Z,28.05
2023-05-22T07:27:04.453Z,29.85
2023-05-22T07:32:06.768Z,26.15
2023-05-22T07:37:12.971Z,26.20
2023-05-22T07:42:15.050Z,24.77
2023-05-22T07:47:17.074Z,24.42
2023-05-22T07:52:19.305Z,26.30
2023-05-22T07:57:21.316Z,27.52
2023-05-22T08:02:23.182Z,27.75
2023-05-22T08:07:25.151Z,27.52
2023-05-22T08:12:27.016Z,26.67
2023-05-22T08:17:28.923Z,27.75
2023-05-22T08:22:31.360Z,25.33
2023-05-22T08:27:33.349Z,27.95
2023-05-22T08:32:35.303Z,26.83
2023-05-22T08:37:37.367Z,26.42
2023-05-22T08:42:39.482Z,26.88
2023-05-22T08:47:44.261Z,28.08
2023-05-22T08:52:57.300Z,26.35
2023-05-22T08:58:00.629Z,29.30
2023-05-22T09:03:02.975Z,26.48
2023-05-22T09:08:16.100Z,28.08
2023-05-22T09:13:32.117Z,30.60
2023-05-22T09:18:34.019Z,33.28
2023-05-22T09:23:35.861Z,34.97
2023-05-22T09:28:37.742Z,31.35
2023-05-22T09:33:39.600Z,24.60
2023-05-22T09:38:41.872Z,23.35
2023-05-22T09:43:50.922Z,22.25
2023-05-22T09:48:53.241Z,24.45
2023-05-22T09:54:03.503Z,22.27
2023-05-22T09:59:09.896Z,23.85
2023-05-22T10:04:16.915Z,25.35
2023-05-22T10:09:30.911Z,23.85
2023-05-22T10:14:36.229Z,25.08
2023-05-22T10:19:42.834Z,26.95
2023-05-22T10:24:48.146Z,26.35
2023-05-22T10:30:06.594Z,24.27
2023-05-22T10:35:38.297Z,26.00
2023-05-22T10:40:41.837Z,25.50
2023-05-22T10:45:46.635Z,26.95
2023-05-22T10:50:54.772Z,26.13
2023-05-22T10:55:58.223Z,26.33
2023-05-22T11:01:20.276Z,29.63
2023-05-22T11:06:47.673Z,27.60
2023-05-22T11:12:25.774Z,30.02
2023-05-22T11:17:29.140Z,35.00
2023-05-22T11:22:39.908Z,32.58
2023-05-22T11:27:42.411Z,35.67
2023-05-22T11:32:46.049Z,31.98
2023-05-22T11:37:50.406Z,33.35
2023-05-22T11:42:53.818Z,30.73
2023-05-22T11:47:56.012Z,26.63
2023-05-22T11:52:59.400Z,26.83
2023-05-22T11:58:02.744Z,26.88
2023-05-22T12:03:06.620Z,25.75
2023-05-22T12:08:08.646Z,26.88
2023-05-22T12:13:10.669Z,31.00
2023-05-22T12:18:12.544Z,33.70
2023-05-22T12:23:28.102Z,37.17
2023-05-22T12:28:32.896Z,36.92
2023-05-22T12:33:34.777Z,34.97
2023-05-22T12:38:39.316Z,33.13
2023-05-22T12:43:41.198Z,33.25
2023-05-22T12:48:43.028Z,31.88
2023-05-22T12:53:44.985Z,32.70
2023-05-22T12:58:46.843Z,32.05
2023-05-22T13:03:48.701Z,31.40
2023-05-22T13:08:51.460Z,32.40
2023-05-22T13:13:53.280Z,33.65
2023-05-22T13:18:55.108Z,34.20
2023-05-22T13:23:57.303Z,31.35
2023-05-22T13:28:59.168Z,27.98
2023-05-22T13:34:03.157Z,25.33
2023-05-22T13:39:05.129Z,27.35
2023-05-22T13:44:06.955Z,23.15
2023-05-22T13:49:08.896Z,26.85
2023-05-22T13:54:11.171Z,26.30
2023-05-22T13:59:13.052Z,24.38
2023-05-22T14:04:14.871Z,26.35
2023-05-22T14:09:17.253Z,24.08
2023-05-22T14:14:24.006Z,24.17
2023-05-22T14:19:26.140Z,25.17
2023-05-22T14:24:28.042Z,25.58
2023-05-22T14:29:29.879Z,24.23
2023-05-22T14:34:31.909Z,24.02
2023-05-22T14:39:33.822Z,24.05
2023-05-22T14:44:35.634Z,25.48
2023-05-22T14:49:37.457Z,24.17
2023-05-22T14:54:39.390Z,25.42
2023-05-22T14:59:41.210Z,26.95
2023-05-22T15:04:44.776Z,31.50
2023-05-22T15:09:46.697Z,30.73
2023-05-22T15:14:48.606Z,33.38
2023-05-22T15:19:50.513Z,31.05
2023-05-22T15:25:15.042Z,29.10
2023-05-22T15:30:18.450Z,28.90
2023-05-22T15:35:21.459Z,28.38
2023-05-22T15:40:24.064Z,28.95
2023-05-22T15:45:25.903Z,25.98
2023-05-22T15:50:28.012Z,23.13
2023-05-22T15:55:29.907Z,20.08
2023-05-22T16:00:34.235Z,18.70
2023-05-22T16:05:37.259Z,24.02
2023-05-22T16:10:41.596Z,22.80
2023-05-22T16:15:44.116Z,23.33
2023-05-22T16:20:46.222Z,23.38
2023-05-22T16:25:50.184Z,22.55
2023-05-22T16:30:52.780Z,19.23
2023-05-22T16:35:54.608Z,17.88
2023-05-22T16:40:56.459Z,20.45
2023-05-22T16:45:58.279Z,19.65
2023-05-22T16:51:00.217Z,17.85
2023-05-22T16:56:02.071Z,17.83
2023-05-22T17:01:06.158Z,15.70
2023-05-22T17:06:09.010Z,17.05
2023-05-22T17:11:10.893Z,18.52
2023-05-22T17:16:12.698Z,17.40
2023-05-22T17:21:14.548Z,17.05
2023-05-22T17:26:16.609Z,14.98
2023-05-22T17:31:18.440Z,17.88
2023-05-22T17:36:20.480Z,16.30
2023-05-22T17:41:24.284Z,17.45
2023-05-22T17:46:26.782Z,20.63
2023-05-22T17:51:28.738Z,19.55
2023-05-22T17:56:30.591Z,20.35
2023-05-22T18:01:32.573Z,20.58
2023-05-22T18:06:34.516Z,18.73
2023-05-22T18:11:37.562Z,20.25
2023-05-22T18:16:39.463Z,18.52
2023-05-22T18:21:41.768Z,19.42
2023-05-22T18:26:43.562Z,19.23
2023-05-22T18:31:45.713Z,18.70
2023-05-22T18:36:49.291Z,18.35
2023-05-22T18:41:52.078Z,18.77
2023-05-22T18:46:54.072Z,18.17
2023-05-22T18:51:55.954Z,17.08
2023-05-22T18:56:57.761Z,18.75
2023-05-22T19:01:59.585Z,17.92
2023-05-22T19:07:01.446Z,17.92
2023-05-22T19:12:03.778Z,18.40
2023-05-22T19:17:05.767Z,18.20
2023-05-22T19:22:07.754Z,18.38
2023-05-22T19:27:09.929Z,18.67
2023-05-22T19:32:11.831Z,18.70
2023-05-22T19:37:13.653Z,18.45
2023-05-22T19:42:15.682Z,19.75
2023-05-22T19:47:17.601Z,18.80
2023-05-22T19:52:19.544Z,20.73
2023-05-22T19:57:21.447Z,18.80
2023-05-22T20:02:23.369Z,20.23
2023-05-22T20:07:25.415Z,17.85
2023-05-22T20:12:27.210Z,19.63
2023-05-22T20:17:32.216Z,17.88
2023-05-22T20:22:34.441Z,19.77
2023-05-22T20:27:36.554Z,19.20
2023-05-22T20:32:39.401Z,17.02
2023-05-22T20:37:41.685Z,17.77
2023-05-22T20:42:43.667Z,17.63
2023-05-22T20:47:47.128Z,15.18
2023-05-22T20:52:49.147Z,15.38
2023-05-22T20:57:50.955Z,14.63
2023-05-22T21:02:52.847Z,13.40
2023-05-22T21:07:54.777Z,12.38
2023-05-22T21:12:56.636Z,12.15
2023-05-22T21:17:58.479Z,11.63
2023-05-22T21:23:00.587Z,11.75
2023-05-22T21:28:02.746Z,13.43
2023-05-22T21:33:04.729Z,12.60
2023-05-22T21:38:06.630Z,13.48
2023-05-22T21:43:08.806Z,13.32
2023-05-22T21:48:14.205Z,14.45
2023-05-22T21:53:16.032Z,15.43
2023-05-22T21:58:17.898Z,16.40
2023-05-22T22:03:19.840Z,18.13
2023-05-22T22:08:21.714Z,21.23
2023-05-22T22:13:23.592Z,21.02
2023-05-22T22:18:26.096Z,24.10
2023-05-22T22:23:28.975Z,26.33
2023-05-22T22:28:31.035Z,25.52
2023-05-22T22:33:33.360Z,28.33
2023-05-22T22:38:35.402Z,26.80
2023-05-22T22:43:37.266Z,27.38
2023-05-22T22:48:41.728Z,25.42
2023-05-22T22:53:43.540Z,25.02
2023-05-22T22:58:45.405Z,25.40
2023-05-22T23:03:47.255Z,25.88
2023-05-22T23:08:49.187Z,27.33
2023-05-22T23:13:51.438Z,27.08
2023-05-22T23:18:53.412Z,26.20
2023-05-22T23:23:55.326Z,21.85
2023-05-22T23:29:00.539Z,20.60
2023-05-22T23:34:02.396Z,22.20
2023-05-22T23:39:04.307Z,21.30
2023-05-22T23:44:06.282Z,21.58
2023-05-22T23:49:08.298Z,21.30
2023-05-22T23:54:10.165Z,23.08
2023-05-22T23:59:11.998Z,21.33
